sensor_id;sensor_type;location;lat;lon;timestamp;P1;durP1;ratioP1;P2;durP2;ratioP2
20830;SDS011;10576;53.556;9.868;2022-11-14T00:01:56;30.92;;;23.17;;
20830;SDS011;10576;53.556;9.868;2022-11-14T00:04:22;29.48;;;23.27;;
20830;SDS011;10576;53.556;9.868;2022-11-14T00:06:47;33.90;;;24.67;;
20830;SDS011;10576;53.556;9.868;2022-11-14T00:09:13;30.25;;;23.52;;
20830;SDS011;10576;53.556;9.868;2022-11-14T00:11:39;29.77;;;23.98;;
20830;SDS011;10576;53.556;9.868;2022-11-14T00:14:04;30.80;;;24.25;;
20830;SDS011;10576;53.556;9.868;2022-11-14T00:16:30;30.23;;;23.50;;
20830;SDS011;10576;53.556;9.868;2022-11-14T00:18:56;32.07;;;24.87;;
20830;SDS011;10576;53.556;9.868;2022-11-14T00:21:21;31.00;;;23.37;;
20830;SDS011;10576;53.556;9.868;2022-11-14T00:23:47;31.93;;;24.07;;
20830;SDS011;10576;53.556;9.868;2022-11-14T00:26:12;32.50;;;24.30;;
20830;SDS011;10576;53.556;9.868;2022-11-14T00:28:38;34.00;;;25.20;;
20830;SDS011;10576;53.556;9.868;2022-11-14T00:31:04;32.93;;;24.50;;
20830;SDS011;10576;53.556;9.868;2022-11-14T00:33:29;32.80;;;24.30;;
20830;SDS011;10576;53.556;9.868;2022-11-14T00:35:55;36.07;;;24.20;;
20830;SDS011;10576;53.556;9.868;2022-11-14T00:38:21;34.53;;;25.23;;
20830;SDS011;10576;53.556;9.868;2022-11-14T00:40:47;33.37;;;24.83;;
20830;SDS011;10576;53.556;9.868;2022-11-14T00:43:13;34.60;;;24.70;;
20830;SDS011;10576;53.556;9.868;2022-11-14T00:45:38;35.30;;;24.75;;
20830;SDS011;10576;53.556;9.868;2022-11-14T00:48:06;35.63;;;24.63;;
20830;SDS011;10576;53.556;9.868;2022-11-14T00:50:31;34.13;;;25.17;;
20830;SDS011;10576;53.556;9.868;2022-11-14T00:52:57;36.20;;;24.58;;
20830;SDS011;10576;53.556;9.868;2022-11-14T00:55:23;35.55;;;24.90;;
20830;SDS011;10576;53.556;9.868;2022-11-14T00:57:48;35.55;;;25.23;;
20830;SDS011;10576;53.556;9.868;2022-11-14T01:00:14;33.43;;;23.97;;
20830;SDS011;10576;53.556;9.868;2022-11-14T01:02:39;36.28;;;25.77;;
20830;SDS011;10576;53.556;9.868;2022-11-14T01:05:05;34.05;;;24.55;;
20830;SDS011;10576;53.556;9.868;2022-11-14T01:07:31;34.85;;;24.80;;
20830;SDS011;10576;53.556;9.868;2022-11-14T01:09:56;34.78;;;24.48;;
20830;SDS011;10576;53.556;9.868;2022-11-14T01:12:22;34.40;;;24.23;;
20830;SDS011;10576;53.556;9.868;2022-11-14T01:14:47;35.95;;;25.05;;
20830;SDS011;10576;53.556;9.868;2022-11-14T01:17:13;35.25;;;25.73;;
20830;SDS011;10576;53.556;9.868;2022-11-14T01:19:39;35.20;;;25.80;;
20830;SDS011;10576;53.556;9.868;2022-11-14T01:22:05;35.92;;;25.73;;
20830;SDS011;10576;53.556;9.868;2022-11-14T01:24:31;34.30;;;25.27;;
20830;SDS011;10576;53.556;9.868;2022-11-14T01:26:57;33.78;;;24.88;;
20830;SDS011;10576;53.556;9.868;2022-11-14T01:29:23;40.08;;;26.20;;
20830;SDS011;10576;53.556;9.868;2022-11-14T01:31:48;34.03;;;25.40;;
20830;SDS011;10576;53.556;9.868;2022-11-14T01:34:14;34.90;;;25.90;;
20830;SDS011;10576;53.556;9.868;2022-11-14T01:36:40;39.27;;;26.80;;
20830;SDS011;10576;53.556;9.868;2022-11-14T01:39:05;36.17;;;26.30;;
20830;SDS011;10576;53.556;9.868;2022-11-14T01:41:31;37.40;;;25.93;;
20830;SDS011;10576;53.556;9.868;2022-11-14T01:43:57;37.60;;;25.70;;
20830;SDS011;10576;53.556;9.868;2022-11-14T01:49:02;37.58;;;26.67;;
20830;SDS011;10576;53.556;9.868;2022-11-14T01:54:00;38.93;;;26.57;;
20830;SDS011;10576;53.556;9.868;2022-11-14T01:56:33;37.33;;;25.80;;
20830;SDS011;10576;53.556;9.868;2022-11-14T01:59:07;37.35;;;25.92;;
20830;SDS011;10576;53.556;9.868;2022-11-14T02:01:35;38.05;;;26.50;;
20830;SDS011;10576;53.556;9.868;2022-11-14T02:04:04;37.40;;;26.17;;
20830;SDS011;10576;53.556;9.868;2022-11-14T02:06:31;37.15;;;26.70;;
20830;SDS011;10576;53.556;9.868;2022-11-14T02:08:58;36.53;;;26.63;;
20830;SDS011;10576;53.556;9.868;2022-11-14T02:11:30;37.97;;;26.25;;
20830;SDS011;10576;53.556;9.868;2022-11-14T02:14:00;37.50;;;26.33;;
20830;SDS011;10576;53.556;9.868;2022-11-14T02:16:26;39.47;;;27.00;;
20830;SDS011;10576;53.556;9.868;2022-11-14T02:18:52;37.13;;;26.15;;
20830;SDS011;10576;53.556;9.868;2022-11-14T02:21:18;38.57;;;26.67;;
20830;SDS011;10576;53.556;9.868;2022-11-14T02:23:44;36.65;;;26.70;;
20830;SDS011;10576;53.556;9.868;2022-11-14T02:26:09;39.17;;;27.30;;
20830;SDS011;10576;53.556;9.868;2022-11-14T02:28:35;40.25;;;27.23;;
20830;SDS011;10576;53.556;9.868;2022-11-14T02:31:01;42.97;;;27.25;;
20830;SDS011;10576;53.556;9.868;2022-11-14T02:33:27;37.00;;;26.80;;
20830;SDS011;10576;53.556;9.868;2022-11-14T02:35:52;39.93;;;27.93;;
20830;SDS011;10576;53.556;9.868;2022-11-14T02:38:18;41.47;;;27.43;;
20830;SDS011;10576;53.556;9.868;2022-11-14T02:40:44;39.50;;;27.10;;
20830;SDS011;10576;53.556;9.868;2022-11-14T02:43:09;40.50;;;27.90;;
20830;SDS011;10576;53.556;9.868;2022-11-14T02:45:35;43.35;;;28.27;;
20830;SDS011;10576;53.556;9.868;2022-11-14T02:48:01;43.03;;;28.00;;
20830;SDS011;10576;53.556;9.868;2022-11-14T02:50:27;41.43;;;28.77;;
20830;SDS011;10576;53.556;9.868;2022-11-14T02:52:53;43.55;;;28.63;;
20830;SDS011;10576;53.556;9.868;2022-11-14T02:55:19;41.08;;;28.50;;
20830;SDS011;10576;53.556;9.868;2022-11-14T02:57:45;41.83;;;28.55;;
20830;SDS011;10576;53.556;9.868;2022-11-14T03:00:11;41.47;;;28.15;;
20830;SDS011;10576;53.556;9.868;2022-11-14T03:02:37;41.85;;;28.67;;
20830;SDS011;10576;53.556;9.868;2022-11-14T03:05:03;39.15;;;27.58;;
20830;SDS011;10576;53.556;9.868;2022-11-14T03:07:29;39.85;;;27.45;;
20830;SDS011;10576;53.556;9.868;2022-11-14T03:09:55;41.40;;;28.33;;
20830;SDS011;10576;53.556;9.868;2022-11-14T03:12:20;40.50;;;28.17;;
20830;SDS011;10576;53.556;9.868;2022-11-14T03:14:46;43.00;;;28.47;;
20830;SDS011;10576;53.556;9.868;2022-11-14T03:17:11;43.63;;;29.30;;
20830;SDS011;10576;53.556;9.868;2022-11-14T03:19:37;41.00;;;27.63;;
20830;SDS011;10576;53.556;9.868;2022-11-14T03:22:03;41.00;;;28.10;;
20830;SDS011;10576;53.556;9.868;2022-11-14T03:24:29;41.95;;;28.15;;
20830;SDS011;10576;53.556;9.868;2022-11-14T03:26:55;40.47;;;28.00;;
20830;SDS011;10576;53.556;9.868;2022-11-14T03:29:20;40.67;;;27.73;;
20830;SDS011;10576;53.556;9.868;2022-11-14T03:31:46;41.55;;;28.92;;
20830;SDS011;10576;53.556;9.868;2022-11-14T03:34:12;42.30;;;28.95;;
20830;SDS011;10576;53.556;9.868;2022-11-14T03:36:38;41.27;;;28.77;;
20830;SDS011;10576;53.556;9.868;2022-11-14T03:39:04;43.80;;;29.00;;
20830;SDS011;10576;53.556;9.868;2022-11-14T03:41:30;43.58;;;29.45;;
20830;SDS011;10576;53.556;9.868;2022-11-14T03:43:56;39.67;;;29.00;;
20830;SDS011;10576;53.556;9.868;2022-11-14T03:46:21;40.00;;;28.02;;
20830;SDS011;10576;53.556;9.868;2022-11-14T03:48:47;39.72;;;27.25;;
20830;SDS011;10576;53.556;9.868;2022-11-14T03:51:13;40.53;;;28.25;;
20830;SDS011;10576;53.556;9.868;2022-11-14T03:53:38;39.95;;;28.35;;
20830;SDS011;10576;53.556;9.868;2022-11-14T03:56:04;38.00;;;27.60;;
20830;SDS011;10576;53.556;9.868;2022-11-14T03:58:30;39.65;;;27.60;;
20830;SDS011;10576;53.556;9.868;2022-11-14T04:00:56;41.30;;;28.23;;
20830;SDS011;10576;53.556;9.868;2022-11-14T04:03:22;40.60;;;28.67;;
20830;SDS011;10576;53.556;9.868;2022-11-14T04:05:48;42.25;;;28.58;;
20830;SDS011;10576;53.556;9.868;2022-11-14T04:08:14;39.95;;;27.90;;
20830;SDS011;10576;53.556;9.868;2022-11-14T04:10:41;43.93;;;29.53;;
20830;SDS011;10576;53.556;9.868;2022-11-14T04:13:06;42.60;;;29.05;;
20830;SDS011;10576;53.556;9.868;2022-11-14T04:15:33;43.70;;;30.00;;
20830;SDS011;10576;53.556;9.868;2022-11-14T04:17:59;44.00;;;29.23;;
20830;SDS011;10576;53.556;9.868;2022-11-14T04:20:24;40.65;;;28.63;;
20830;SDS011;10576;53.556;9.868;2022-11-14T04:22:50;40.70;;;28.67;;
20830;SDS011;10576;53.556;9.868;2022-11-14T04:25:16;40.47;;;28.23;;
20830;SDS011;10576;53.556;9.868;2022-11-14T04:27:42;37.83;;;27.38;;
20830;SDS011;10576;53.556;9.868;2022-11-14T04:30:08;38.88;;;27.63;;
20830;SDS011;10576;53.556;9.868;2022-11-14T04:32:34;40.03;;;28.05;;
20830;SDS011;10576;53.556;9.868;2022-11-14T04:35:00;39.83;;;28.48;;
20830;SDS011;10576;53.556;9.868;2022-11-14T04:37:25;42.35;;;28.33;;
20830;SDS011;10576;53.556;9.868;2022-11-14T04:39:51;42.13;;;29.33;;
20830;SDS011;10576;53.556;9.868;2022-11-14T04:42:17;40.87;;;28.53;;
20830;SDS011;10576;53.556;9.868;2022-11-14T04:44:43;42.27;;;29.70;;
20830;SDS011;10576;53.556;9.868;2022-11-14T04:47:08;42.40;;;29.70;;
20830;SDS011;10576;53.556;9.868;2022-11-14T04:49:34;43.03;;;28.58;;
20830;SDS011;10576;53.556;9.868;2022-11-14T04:52:00;39.88;;;28.23;;
20830;SDS011;10576;53.556;9.868;2022-11-14T04:54:26;40.83;;;28.67;;
20830;SDS011;10576;53.556;9.868;2022-11-14T04:56:51;42.87;;;29.73;;
20830;SDS011;10576;53.556;9.868;2022-11-14T04:59:17;42.93;;;29.70;;
20830;SDS011;10576;53.556;9.868;2022-11-14T05:01:42;42.53;;;28.87;;
20830;SDS011;10576;53.556;9.868;2022-11-14T05:04:08;42.30;;;28.83;;
20830;SDS011;10576;53.556;9.868;2022-11-14T05:06:34;41.90;;;29.07;;
20830;SDS011;10576;53.556;9.868;2022-11-14T05:08:59;44.10;;;28.70;;
20830;SDS011;10576;53.556;9.868;2022-11-14T05:11:25;43.00;;;29.07;;
20830;SDS011;10576;53.556;9.868;2022-11-14T05:13:51;42.13;;;29.13;;
20830;SDS011;10576;53.556;9.868;2022-11-14T05:16:16;41.33;;;28.85;;
20830;SDS011;10576;53.556;9.868;2022-11-14T05:18:42;39.28;;;27.63;;
20830;SDS011;10576;53.556;9.868;2022-11-14T05:21:11;38.10;;;27.60;;
20830;SDS011;10576;53.556;9.868;2022-11-14T05:23:38;41.50;;;28.33;;
20830;SDS011;10576;53.556;9.868;2022-11-14T05:26:05;38.53;;;27.20;;
20830;SDS011;10576;53.556;9.868;2022-11-14T05:28:36;39.15;;;28.10;;
20830;SDS011;10576;53.556;9.868;2022-11-14T05:33:27;43.38;;;28.65;;
20830;SDS011;10576;53.556;9.868;2022-11-14T05:35:53;39.73;;;27.20;;
20830;SDS011;10576;53.556;9.868;2022-11-14T05:38:19;42.00;;;29.40;;
20830;SDS011;10576;53.556;9.868;2022-11-14T05:40:45;41.10;;;27.52;;
20830;SDS011;10576;53.556;9.868;2022-11-14T05:43:10;41.83;;;28.90;;
20830;SDS011;10576;53.556;9.868;2022-11-14T05:45:36;42.47;;;28.80;;
20830;SDS011;10576;53.556;9.868;2022-11-14T05:48:02;44.43;;;29.50;;
20830;SDS011;10576;53.556;9.868;2022-11-14T05:50:27;46.03;;;29.73;;
20830;SDS011;10576;53.556;9.868;2022-11-14T05:52:54;40.10;;;28.25;;
20830;SDS011;10576;53.556;9.868;2022-11-14T05:55:20;44.40;;;29.95;;
20830;SDS011;10576;53.556;9.868;2022-11-14T05:57:46;44.42;;;29.83;;
20830;SDS011;10576;53.556;9.868;2022-11-14T06:00:12;44.70;;;30.15;;
20830;SDS011;10576;53.556;9.868;2022-11-14T06:02:38;44.03;;;29.40;;
20830;SDS011;10576;53.556;9.868;2022-11-14T06:05:04;42.33;;;29.07;;
20830;SDS011;10576;53.556;9.868;2022-11-14T06:07:30;43.92;;;29.63;;
20830;SDS011;10576;53.556;9.868;2022-11-14T06:09:55;43.93;;;29.40;;
20830;SDS011;10576;53.556;9.868;2022-11-14T06:12:21;44.40;;;29.93;;
20830;SDS011;10576;53.556;9.868;2022-11-14T06:14:46;45.63;;;29.67;;
20830;SDS011;10576;53.556;9.868;2022-11-14T06:17:12;45.97;;;29.70;;
20830;SDS011;10576;53.556;9.868;2022-11-14T06:19:38;43.60;;;29.43;;
20830;SDS011;10576;53.556;9.868;2022-11-14T06:22:03;45.30;;;30.03;;
20830;SDS011;10576;53.556;9.868;2022-11-14T06:24:29;46.30;;;29.97;;
20830;SDS011;10576;53.556;9.868;2022-11-14T06:26:54;43.40;;;30.08;;
20830;SDS011;10576;53.556;9.868;2022-11-14T06:29:20;47.45;;;31.38;;
20830;SDS011;10576;53.556;9.868;2022-11-14T06:31:46;43.35;;;30.23;;
20830;SDS011;10576;53.556;9.868;2022-11-14T06:34:12;43.80;;;30.13;;
20830;SDS011;10576;53.556;9.868;2022-11-14T06:36:37;41.77;;;29.43;;
20830;SDS011;10576;53.556;9.868;2022-11-14T06:39:03;43.77;;;30.00;;
20830;SDS011;10576;53.556;9.868;2022-11-14T06:41:29;44.90;;;30.23;;
20830;SDS011;10576;53.556;9.868;2022-11-14T06:43:54;43.90;;;30.10;;
20830;SDS011;10576;53.556;9.868;2022-11-14T06:46:21;44.03;;;30.27;;
20830;SDS011;10576;53.556;9.868;2022-11-14T06:48:47;48.10;;;30.55;;
20830;SDS011;10576;53.556;9.868;2022-11-14T06:51:14;43.45;;;29.38;;
20830;SDS011;10576;53.556;9.868;2022-11-14T06:53:41;45.10;;;29.90;;
20830;SDS011;10576;53.556;9.868;2022-11-14T06:56:11;45.70;;;30.48;;
20830;SDS011;10576;53.556;9.868;2022-11-14T06:58:39;46.53;;;30.70;;
20830;SDS011;10576;53.556;9.868;2022-11-14T07:01:14;47.13;;;30.80;;
20830;SDS011;10576;53.556;9.868;2022-11-14T07:03:40;47.63;;;31.07;;
20830;SDS011;10576;53.556;9.868;2022-11-14T07:06:07;45.30;;;30.08;;
20830;SDS011;10576;53.556;9.868;2022-11-14T07:08:35;43.92;;;30.13;;
20830;SDS011;10576;53.556;9.868;2022-11-14T07:11:04;43.60;;;29.58;;
20830;SDS011;10576;53.556;9.868;2022-11-14T07:13:32;41.83;;;28.15;;
20830;SDS011;10576;53.556;9.868;2022-11-14T07:15:58;43.03;;;29.23;;
20830;SDS011;10576;53.556;9.868;2022-11-14T07:18:25;42.72;;;28.65;;
20830;SDS011;10576;53.556;9.868;2022-11-14T07:21:03;43.80;;;29.52;;
20830;SDS011;10576;53.556;9.868;2022-11-14T07:23:30;42.92;;;28.08;;
20830;SDS011;10576;53.556;9.868;2022-11-14T07:26:01;42.15;;;28.92;;
20830;SDS011;10576;53.556;9.868;2022-11-14T07:28:28;42.83;;;28.90;;
20830;SDS011;10576;53.556;9.868;2022-11-14T07:30:55;45.55;;;31.15;;
20830;SDS011;10576;53.556;9.868;2022-11-14T07:33:21;45.55;;;29.73;;
20830;SDS011;10576;53.556;9.868;2022-11-14T07:35:46;43.58;;;28.98;;
20830;SDS011;10576;53.556;9.868;2022-11-14T07:38:12;43.95;;;28.73;;
20830;SDS011;10576;53.556;9.868;2022-11-14T07:40:38;42.30;;;28.42;;
20830;SDS011;10576;53.556;9.868;2022-11-14T07:43:03;46.38;;;30.10;;
20830;SDS011;10576;53.556;9.868;2022-11-14T07:45:29;42.88;;;28.15;;
20830;SDS011;10576;53.556;9.868;2022-11-14T07:47:58;46.37;;;29.67;;
20830;SDS011;10576;53.556;9.868;2022-11-14T07:50:26;43.90;;;29.58;;
20830;SDS011;10576;53.556;9.868;2022-11-14T07:52:53;46.85;;;29.77;;
20830;SDS011;10576;53.556;9.868;2022-11-14T07:55:20;47.85;;;31.02;;
20830;SDS011;10576;53.556;9.868;2022-11-14T07:57:46;47.42;;;30.58;;
20830;SDS011;10576;53.556;9.868;2022-11-14T08:00:12;46.75;;;31.38;;
20830;SDS011;10576;53.556;9.868;2022-11-14T08:02:39;46.30;;;30.73;;
20830;SDS011;10576;53.556;9.868;2022-11-14T08:05:05;49.17;;;30.73;;
20830;SDS011;10576;53.556;9.868;2022-11-14T08:07:30;47.60;;;30.77;;
20830;SDS011;10576;53.556;9.868;2022-11-14T08:09:56;48.63;;;30.50;;
20830;SDS011;10576;53.556;9.868;2022-11-14T08:12:22;47.58;;;30.27;;
20830;SDS011;10576;53.556;9.868;2022-11-14T08:14:47;47.47;;;30.73;;
20830;SDS011;10576;53.556;9.868;2022-11-14T08:17:13;48.97;;;30.00;;
20830;SDS011;10576;53.556;9.868;2022-11-14T08:19:39;46.03;;;29.73;;
20830;SDS011;10576;53.556;9.868;2022-11-14T08:22:05;47.37;;;29.37;;
20830;SDS011;10576;53.556;9.868;2022-11-14T08:24:31;44.97;;;28.73;;
20830;SDS011;10576;53.556;9.868;2022-11-14T08:26:57;47.40;;;29.52;;
20830;SDS011;10576;53.556;9.868;2022-11-14T08:29:23;42.57;;;27.87;;
20830;SDS011;10576;53.556;9.868;2022-11-14T08:31:48;43.20;;;27.60;;
20830;SDS011;10576;53.556;9.868;2022-11-14T08:34:14;47.97;;;27.10;;
20830;SDS011;10576;53.556;9.868;2022-11-14T08:36:40;45.30;;;27.37;;
20830;SDS011;10576;53.556;9.868;2022-11-14T08:39:05;44.90;;;28.10;;
20830;SDS011;10576;53.556;9.868;2022-11-14T08:41:31;42.95;;;28.00;;
20830;SDS011;10576;53.556;9.868;2022-11-14T08:43:56;44.28;;;28.40;;
20830;SDS011;10576;53.556;9.868;2022-11-14T08:46:22;46.03;;;28.92;;
20830;SDS011;10576;53.556;9.868;2022-11-14T08:48:48;43.50;;;28.55;;
20830;SDS011;10576;53.556;9.868;2022-11-14T08:51:13;45.93;;;29.70;;
20830;SDS011;10576;53.556;9.868;2022-11-14T08:53:39;48.07;;;29.63;;
20830;SDS011;10576;53.556;9.868;2022-11-14T08:56:05;48.13;;;30.57;;
20830;SDS011;10576;53.556;9.868;2022-11-14T08:58:31;48.90;;;30.80;;
20830;SDS011;10576;53.556;9.868;2022-11-14T09:01:04;47.70;;;31.73;;
20830;SDS011;10576;53.556;9.868;2022-11-14T09:03:31;49.20;;;31.48;;
20830;SDS011;10576;53.556;9.868;2022-11-14T09:05:57;46.10;;;30.23;;
20830;SDS011;10576;53.556;9.868;2022-11-14T09:08:23;48.58;;;30.70;;
20830;SDS011;10576;53.556;9.868;2022-11-14T09:10:49;43.90;;;29.25;;
20830;SDS011;10576;53.556;9.868;2022-11-14T09:13:15;45.85;;;29.67;;
20830;SDS011;10576;53.556;9.868;2022-11-14T09:15:41;45.55;;;29.50;;
20830;SDS011;10576;53.556;9.868;2022-11-14T09:18:07;45.08;;;29.33;;
20830;SDS011;10576;53.556;9.868;2022-11-14T09:20:34;48.38;;;30.15;;
20830;SDS011;10576;53.556;9.868;2022-11-14T09:23:00;47.53;;;28.83;;
20830;SDS011;10576;53.556;9.868;2022-11-14T09:25:26;47.38;;;29.23;;
20830;SDS011;10576;53.556;9.868;2022-11-14T09:27:53;44.53;;;29.80;;
20830;SDS011;10576;53.556;9.868;2022-11-14T09:30:19;47.92;;;29.10;;
20830;SDS011;10576;53.556;9.868;2022-11-14T09:32:46;45.28;;;29.10;;
20830;SDS011;10576;53.556;9.868;2022-11-14T09:35:12;46.00;;;28.95;;
20830;SDS011;10576;53.556;9.868;2022-11-14T09:37:38;47.15;;;29.15;;
20830;SDS011;10576;53.556;9.868;2022-11-14T09:40:04;48.60;;;30.20;;
20830;SDS011;10576;53.556;9.868;2022-11-14T09:45:19;46.70;;;30.02;;
20830;SDS011;10576;53.556;9.868;2022-11-14T09:47:45;45.13;;;29.65;;
20830;SDS011;10576;53.556;9.868;2022-11-14T09:50:16;42.90;;;28.58;;
20830;SDS011;10576;53.556;9.868;2022-11-14T09:52:43;45.22;;;28.95;;
20830;SDS011;10576;53.556;9.868;2022-11-14T09:57:43;44.72;;;28.92;;
20830;SDS011;10576;53.556;9.868;2022-11-14T10:00:20;42.55;;;28.45;;
20830;SDS011;10576;53.556;9.868;2022-11-14T10:11:15;48.10;;;29.83;;
20830;SDS011;10576;53.556;9.868;2022-11-14T10:19:22;44.85;;;28.05;;
20830;SDS011;10576;53.556;9.868;2022-11-14T10:24:50;43.35;;;28.88;;
20830;SDS011;10576;53.556;9.868;2022-11-14T10:27:23;46.95;;;28.83;;
20830;SDS011;10576;53.556;9.868;2022-11-14T10:29:55;45.08;;;29.40;;
20830;SDS011;10576;53.556;9.868;2022-11-14T10:35:17;46.90;;;28.83;;
20830;SDS011;10576;53.556;9.868;2022-11-14T10:43:31;44.47;;;28.65;;
20830;SDS011;10576;53.556;9.868;2022-11-14T10:46:30;43.72;;;29.13;;
20830;SDS011;10576;53.556;9.868;2022-11-14T10:48:59;41.15;;;27.40;;
20830;SDS011;10576;53.556;9.868;2022-11-14T10:54:11;37.92;;;26.83;;
20830;SDS011;10576;53.556;9.868;2022-11-14T10:56:57;40.55;;;27.27;;
20830;SDS011;10576;53.556;9.868;2022-11-14T10:59:22;40.90;;;27.40;;
20830;SDS011;10576;53.556;9.868;2022-11-14T11:06:54;39.13;;;27.58;;
20830;SDS011;10576;53.556;9.868;2022-11-14T11:09:36;35.38;;;25.58;;
20830;SDS011;10576;53.556;9.868;2022-11-14T11:18:02;38.58;;;26.08;;
20830;SDS011;10576;53.556;9.868;2022-11-14T11:20:34;35.80;;;26.15;;
20830;SDS011;10576;53.556;9.868;2022-11-14T11:25:39;40.23;;;26.60;;
20830;SDS011;10576;53.556;9.868;2022-11-14T11:28:16;36.90;;;26.27;;
20830;SDS011;10576;53.556;9.868;2022-11-14T11:31:03;36.05;;;25.83;;
20830;SDS011;10576;53.556;9.868;2022-11-14T11:33:31;33.20;;;25.40;;
20830;SDS011;10576;53.556;9.868;2022-11-14T11:35:59;34.38;;;24.92;;
20830;SDS011;10576;53.556;9.868;2022-11-14T11:38:28;38.33;;;25.87;;
20830;SDS011;10576;53.556;9.868;2022-11-14T11:41:04;35.20;;;25.30;;
20830;SDS011;10576;53.556;9.868;2022-11-14T11:49:10;35.35;;;25.85;;
20830;SDS011;10576;53.556;9.868;2022-11-14T11:51:53;36.38;;;26.25;;
20830;SDS011;10576;53.556;9.868;2022-11-14T11:54:25;37.90;;;26.65;;
20830;SDS011;10576;53.556;9.868;2022-11-14T11:56:55;34.55;;;25.63;;
20830;SDS011;10576;53.556;9.868;2022-11-14T12:02:00;37.42;;;25.15;;
20830;SDS011;10576;53.556;9.868;2022-11-14T12:04:40;36.22;;;25.02;;
20830;SDS011;10576;53.556;9.868;2022-11-14T12:07:10;35.90;;;25.13;;
20830;SDS011;10576;53.556;9.868;2022-11-14T12:09:40;35.10;;;25.03;;
20830;SDS011;10576;53.556;9.868;2022-11-14T12:12:14;34.30;;;25.10;;
20830;SDS011;10576;53.556;9.868;2022-11-14T12:31:33;33.38;;;24.90;;
20830;SDS011;10576;53.556;9.868;2022-11-14T12:34:01;32.70;;;24.15;;
20830;SDS011;10576;53.556;9.868;2022-11-14T12:36:36;34.10;;;25.15;;
20830;SDS011;10576;53.556;9.868;2022-11-14T12:39:05;34.58;;;24.65;;
20830;SDS011;10576;53.556;9.868;2022-11-14T12:41:44;35.15;;;23.83;;
20830;SDS011;10576;53.556;9.868;2022-11-14T12:57:58;32.67;;;23.80;;
20830;SDS011;10576;53.556;9.868;2022-11-14T13:00:37;35.70;;;24.52;;
20830;SDS011;10576;53.556;9.868;2022-11-14T13:11:43;33.90;;;24.53;;
20830;SDS011;10576;53.556;9.868;2022-11-14T13:14:30;36.65;;;24.92;;
20830;SDS011;10576;53.556;9.868;2022-11-14T13:17:30;35.63;;;24.85;;
20830;SDS011;10576;53.556;9.868;2022-11-14T13:23:04;35.22;;;25.65;;
20830;SDS011;10576;53.556;9.868;2022-11-14T13:33:47;35.45;;;25.58;;
20830;SDS011;10576;53.556;9.868;2022-11-14T13:44:51;33.38;;;24.75;;
20830;SDS011;10576;53.556;9.868;2022-11-14T13:50:33;34.60;;;24.97;;
20830;SDS011;10576;53.556;9.868;2022-11-14T13:53:01;34.63;;;25.02;;
20830;SDS011;10576;53.556;9.868;2022-11-14T13:55:37;34.70;;;24.88;;
20830;SDS011;10576;53.556;9.868;2022-11-14T14:06:41;36.00;;;25.08;;
20830;SDS011;10576;53.556;9.868;2022-11-14T14:14:50;35.92;;;26.17;;
20830;SDS011;10576;53.556;9.868;2022-11-14T14:25:58;35.60;;;24.83;;
20830;SDS011;10576;53.556;9.868;2022-11-14T14:29:05;37.08;;;24.98;;
20830;SDS011;10576;53.556;9.868;2022-11-14T14:31:46;34.22;;;25.13;;
20830;SDS011;10576;53.556;9.868;2022-11-14T14:34:22;35.07;;;24.93;;
20830;SDS011;10576;53.556;9.868;2022-11-14T14:36:55;33.80;;;23.80;;
20830;SDS011;10576;53.556;9.868;2022-11-14T14:39:23;34.42;;;25.48;;
20830;SDS011;10576;53.556;9.868;2022-11-14T14:41:50;34.70;;;24.52;;
20830;SDS011;10576;53.556;9.868;2022-11-14T14:46:49;33.85;;;24.40;;
20830;SDS011;10576;53.556;9.868;2022-11-14T14:49:35;35.35;;;24.50;;
20830;SDS011;10576;53.556;9.868;2022-11-14T14:52:15;38.28;;;25.58;;
20830;SDS011;10576;53.556;9.868;2022-11-14T14:54:53;36.33;;;25.60;;
20830;SDS011;10576;53.556;9.868;2022-11-14T14:57:19;36.80;;;26.23;;
20830;SDS011;10576;53.556;9.868;2022-11-14T14:59:45;35.43;;;24.83;;
20830;SDS011;10576;53.556;9.868;2022-11-14T15:02:13;36.73;;;25.17;;
20830;SDS011;10576;53.556;9.868;2022-11-14T15:04:42;36.45;;;24.83;;
20830;SDS011;10576;53.556;9.868;2022-11-14T15:07:21;37.65;;;25.50;;
20830;SDS011;10576;53.556;9.868;2022-11-14T15:09:50;38.58;;;26.42;;
20830;SDS011;10576;53.556;9.868;2022-11-14T15:12:21;35.70;;;24.77;;
20830;SDS011;10576;53.556;9.868;2022-11-14T15:14:49;37.42;;;26.33;;
20830;SDS011;10576;53.556;9.868;2022-11-14T15:17:16;37.70;;;25.45;;
20830;SDS011;10576;53.556;9.868;2022-11-14T15:19:43;37.03;;;26.10;;
20830;SDS011;10576;53.556;9.868;2022-11-14T15:24:39;35.00;;;24.63;;
20830;SDS011;10576;53.556;9.868;2022-11-14T15:27:10;35.78;;;25.35;;
20830;SDS011;10576;53.556;9.868;2022-11-14T15:29:44;35.40;;;24.95;;
20830;SDS011;10576;53.556;9.868;2022-11-14T15:32:20;36.78;;;24.60;;
20830;SDS011;10576;53.556;9.868;2022-11-14T15:38:03;36.55;;;24.85;;
20830;SDS011;10576;53.556;9.868;2022-11-14T15:40:32;34.83;;;24.50;;
20830;SDS011;10576;53.556;9.868;2022-11-14T15:42:59;35.65;;;25.05;;
20830;SDS011;10576;53.556;9.868;2022-11-14T15:45:37;36.63;;;25.00;;
20830;SDS011;10576;53.556;9.868;2022-11-14T15:48:10;35.60;;;24.80;;
20830;SDS011;10576;53.556;9.868;2022-11-14T15:50:39;34.67;;;25.15;;
20830;SDS011;10576;53.556;9.868;2022-11-14T15:53:13;34.25;;;24.27;;
20830;SDS011;10576;53.556;9.868;2022-11-14T15:55:44;36.55;;;25.15;;
20830;SDS011;10576;53.556;9.868;2022-11-14T15:58:11;37.90;;;25.80;;
20830;SDS011;10576;53.556;9.868;2022-11-14T16:00:39;37.00;;;25.15;;
20830;SDS011;10576;53.556;9.868;2022-11-14T16:03:13;35.85;;;25.00;;
20830;SDS011;10576;53.556;9.868;2022-11-14T16:05:42;36.70;;;25.05;;
20830;SDS011;10576;53.556;9.868;2022-11-14T16:08:09;36.08;;;25.02;;
20830;SDS011;10576;53.556;9.868;2022-11-14T16:10:35;37.28;;;25.63;;
20830;SDS011;10576;53.556;9.868;2022-11-14T16:13:01;35.40;;;24.40;;
20830;SDS011;10576;53.556;9.868;2022-11-14T16:15:26;35.37;;;25.07;;
20830;SDS011;10576;53.556;9.868;2022-11-14T16:17:52;33.78;;;24.58;;
20830;SDS011;10576;53.556;9.868;2022-11-14T16:20:19;35.70;;;25.27;;
20830;SDS011;10576;53.556;9.868;2022-11-14T16:22:53;36.00;;;25.48;;
20830;SDS011;10576;53.556;9.868;2022-11-14T16:25:25;34.57;;;24.40;;
20830;SDS011;10576;53.556;9.868;2022-11-14T16:27:53;38.95;;;25.63;;
20830;SDS011;10576;53.556;9.868;2022-11-14T16:30:19;36.25;;;25.95;;
20830;SDS011;10576;53.556;9.868;2022-11-14T16:32:47;41.00;;;27.97;;
20830;SDS011;10576;53.556;9.868;2022-11-14T16:35:15;41.80;;;27.52;;
20830;SDS011;10576;53.556;9.868;2022-11-14T16:37:42;37.97;;;26.30;;
20830;SDS011;10576;53.556;9.868;2022-11-14T16:40:12;36.42;;;25.75;;
20830;SDS011;10576;53.556;9.868;2022-11-14T16:42:43;36.47;;;26.60;;
20830;SDS011;10576;53.556;9.868;2022-11-14T16:45:10;37.10;;;25.65;;
20830;SDS011;10576;53.556;9.868;2022-11-14T16:47:35;38.10;;;26.30;;
20830;SDS011;10576;53.556;9.868;2022-11-14T16:50:02;37.60;;;26.15;;
20830;SDS011;10576;53.556;9.868;2022-11-14T16:52:28;38.00;;;25.67;;
20830;SDS011;10576;53.556;9.868;2022-11-14T16:54:53;38.60;;;26.27;;
20830;SDS011;10576;53.556;9.868;2022-11-14T16:57:19;36.58;;;25.25;;
20830;SDS011;10576;53.556;9.868;2022-11-14T16:59:45;34.38;;;25.15;;
20830;SDS011;10576;53.556;9.868;2022-11-14T17:02:13;38.40;;;26.70;;